Time;durP1;ratioP1;P1;durP2;ratioP2;P2;SDS_P1;SDS_P2;PMS_P1;PMS_P2;Temp;Humidity;BMP_temperature;BMP_pressure;BME280_temperature;BME280_humidity;BME280_pressure;Samples;Min_cycle;Max_cycle;Signal;HPM_P1;HPM_P2
2023/10/21 00:02:20;;;;;;;;;4.33;3.00;;;;;14.79;87.88;97819.34;5076570;27;45341;-84
2023/10/21 00:04:45;;;;;;;;;4.33;3.00;;;;;14.96;88.17;97855.66;5081435;27;47514;-82
2023/10/21 00:07:11;;;;;;;;;4.67;4.00;;;;;14.86;88.30;97839.03;5092263;27;46020;-83
2023/10/21 00:09:36;;;;;;;;;5.00;3.33;;;;;14.93;88.66;97848.00;5083112;27;45365;-83
2023/10/21 00:12:01;;;;;;;;;2.33;2.33;;;;;14.84;88.83;97821.47;5095731;27;46943;-84
2023/10/21 00:14:27;;;;;;;;;3.33;3.33;;;;;15.15;88.60;97881.09;5100127;27;45692;-85
2023/10/21 00:16:53;;;;;;;;;3.00;3.00;;;;;15.14;89.95;97878.63;5100481;27;45272;-83
2023/10/21 00:19:18;;;;;;;;;3.67;3.00;;;;;14.90;89.34;97848.38;5085826;27;45901;-83
2023/10/21 00:21:43;;;;;;;;;4.00;2.00;;;;;14.66;90.29;97824.47;5081030;27;45524;-83
2023/10/21 00:24:09;;;;;;;;;4.33;2.00;;;;;15.11;90.00;97903.91;5089405;27;46148;-83
2023/10/21 00:26:47;;;;;;;;;2.00;2.00;;;;;15.07;88.95;97897.22;5100472;27;45321;-84
2023/10/21 00:29:14;;;;;;;;;2.67;2.00;;;;;14.85;89.45;97871.34;5102768;27;45345;-84
2023/10/21 00:31:40;;;;;;;;;1.00;1.00;;;;;15.06;88.24;97908.94;5108638;27;45404;-84
2023/10/21 00:34:06;;;;;;;;;0.00;0.00;;;;;15.10;85.96;97926.31;5110688;27;46981;-83
2023/10/21 00:36:31;;;;;;;;;1.33;0.00;;;;;14.93;84.44;97898.00;5099113;27;44655;-81
2023/10/21 00:38:56;;;;;;;;;0.00;0.00;;;;;15.09;84.07;97921.97;5108653;27;44763;-83
2023/10/21 00:41:22;;;;;;;;;0.00;0.00;;;;;15.08;83.04;97920.31;5104277;27;49270;-82
2023/10/21 00:43:47;;;;;;;;;0.00;0.00;;;;;14.98;83.01;97920.56;5097896;27;47117;-83
2023/10/21 00:46:17;;;;;;;;;1.33;0.00;;;;;14.80;81.83;97900.44;5098385;27;51580;-83
2023/10/21 00:48:47;;;;;;;;;0.00;0.00;;;;;15.08;82.40;97946.25;5099114;27;45376;-83
2023/10/21 00:51:13;;;;;;;;;0.00;0.00;;;;;15.04;81.84;97969.88;5098869;27;45228;-83
2023/10/21 00:53:39;;;;;;;;;0.00;0.00;;;;;15.05;81.74;97984.91;5097720;27;45901;-82
2023/10/21 00:56:08;;;;;;;;;0.00;0.00;;;;;15.02;82.08;97982.59;5098383;27;45346;-83
2023/10/21 00:58:35;;;;;;;;;0.00;0.00;;;;;15.04;81.38;97988.59;5097486;27;45333;-83
2023/10/21 01:01:01;;;;;;;;;0.00;0.00;;;;;15.00;81.24;98004.19;5099142;27;45255;-83
2023/10/21 01:03:29;;;;;;;;;0.00;0.00;;;;;14.93;81.09;97997.03;5098535;27;46166;-83
2023/10/21 01:05:54;;;;;;;;;0.00;0.00;;;;;15.01;80.77;98011.19;5099641;27;45586;-82
2023/10/21 01:08:19;;;;;;;;;0.00;0.00;;;;;15.00;80.72;98019.41;5100083;27;45466;-83
2023/10/21 01:10:45;;;;;;;;;0.00;0.00;;;;;14.67;80.57;97971.41;5099123;27;45606;-82
2023/10/21 01:13:10;;;;;;;;;0.00;0.00;;;;;14.97;80.48;98017.94;5087229;27;45319;-84
2023/10/21 01:15:36;;;;;;;;;0.00;0.00;;;;;14.76;80.48;97996.28;5080615;27;45479;-82
2023/10/21 01:18:03;;;;;;;;;0.00;0.00;;;;;14.89;80.44;98043.88;5089170;27;45406;-83
2023/10/21 01:20:29;;;;;;;;;0.00;0.00;;;;;14.68;80.16;98005.19;5089731;27;45483;-83
2023/10/21 01:22:56;;;;;;;;;0.33;0.00;;;;;14.75;79.83;98032.91;5077923;27;45459;-83
2023/10/21 01:25:22;;;;;;;;;0.00;0.00;;;;;14.69;80.18;98030.94;5094146;27;45385;-84
2023/10/21 01:27:54;;;;;;;;;0.00;0.00;;;;;14.52;79.47;98007.94;5077530;27;45538;-82
2023/10/21 01:30:20;;;;;;;;;0.00;0.00;;;;;14.63;79.45;98034.31;5082010;27;45393;-83
2023/10/21 01:32:48;;;;;;;;;0.00;0.00;;;;;14.64;78.98;98046.69;5076649;27;45381;-84
2023/10/21 01:35:15;;;;;;;;;0.00;0.00;;;;;14.60;78.63;98056.06;5075793;27;46754;-84
2023/10/21 01:37:42;;;;;;;;;0.00;0.00;;;;;14.53;78.66;98046.22;5089521;27;45217;-85
2023/10/21 01:40:09;;;;;;;;;0.00;0.00;;;;;14.34;78.09;98034.06;5076275;28;45660;-82
2023/10/21 01:42:36;;;;;;;;;0.00;0.00;;;;;14.56;77.57;98060.06;5088617;27;46340;-83
2023/10/21 01:45:01;;;;;;;;;0.00;0.00;;;;;14.62;77.57;98075.44;5093410;27;45402;-83
2023/10/21 01:47:26;;;;;;;;;0.00;0.00;;;;;14.68;77.16;98096.13;5077399;27;45186;-83
2023/10/21 01:49:52;;;;;;;;;0.00;0.00;;;;;14.53;77.07;98084.50;5077798;28;45596;-84
2023/10/21 01:52:17;;;;;;;;;0.00;0.00;;;;;14.69;76.38;98097.81;5077857;27;45674;-84
2023/10/21 01:54:45;;;;;;;;;0.00;0.00;;;;;14.30;76.60;98038.06;5087891;27;45222;-83
2023/10/21 01:57:11;;;;;;;;;0.00;0.00;;;;;14.66;76.16;98098.16;5099078;27;57742;-82
2023/10/21 01:59:40;;;;;;;;;0.00;0.00;;;;;14.80;75.74;98114.50;5099812;27;45608;-87
2023/10/21 02:02:05;;;;;;;;;0.00;0.00;;;;;14.77;75.89;98106.81;5097605;27;46359;-84
2023/10/21 02:04:31;;;;;;;;;0.00;0.00;;;;;14.72;76.45;98110.84;5082846;28;45399;-82
2023/10/21 02:06:56;;;;;;;;;1.00;1.00;;;;;14.63;76.38;98093.16;5079787;28;45461;-86
2023/10/21 02:09:21;;;;;;;;;0.00;0.00;;;;;14.78;76.01;98127.22;5077551;28;45579;-84
2023/10/21 02:11:47;;;;;;;;;0.00;0.00;;;;;14.77;76.40;98122.88;5077164;28;60264;-84
2023/10/21 02:14:12;;;;;;;;;0.00;0.00;;;;;14.73;76.81;98125.91;5076896;28;45325;-84
2023/10/21 02:16:38;;;;;;;;;1.67;0.00;;;;;14.64;76.50;98120.75;5077758;28;45343;-83
2023/10/21 02:19:03;;;;;;;;;0.00;0.00;;;;;14.52;77.17;98117.59;5077619;27;45342;-83
2023/10/21 02:21:28;;;;;;;;;0.00;0.00;;;;;14.66;77.09;98137.44;5076496;27;55557;-84
2023/10/21 02:23:54;;;;;;;;;0.00;0.00;;;;;14.56;76.96;98137.63;5077256;27;45318;-84
2023/10/21 02:26:19;;;;;;;;;1.00;0.00;;;;;14.36;76.68;98098.88;5076364;28;55765;-88
2023/10/21 02:28:44;;;;;;;;;1.00;0.00;;;;;14.46;76.23;98134.34;5077516;28;45652;-83
2023/10/21 02:31:09;;;;;;;;;0.00;0.00;;;;;14.55;75.56;98154.69;5086276;27;58415;-84
2023/10/21 02:33:35;;;;;;;;;0.00;0.00;;;;;14.38;75.92;98142.34;5097360;27;45276;-86
2023/10/21 02:36:00;;;;;;;;;0.00;0.00;;;;;14.30;76.02;98147.69;5093061;27;45324;-83
2023/10/21 02:38:25;;;;;;;;;1.00;0.00;;;;;14.37;76.16;98170.06;5086320;27;45477;-84
2023/10/21 02:40:51;;;;;;;;;0.00;0.00;;;;;14.26;76.42;98157.06;5085864;27;62162;-85
2023/10/21 02:43:17;;;;;;;;;0.00;0.00;;;;;14.20;75.86;98177.28;5091310;27;45329;-84
2023/10/21 02:45:42;;;;;;;;;0.33;0.00;;;;;14.11;76.08;98164.91;5076589;27;45404;-86
2023/10/21 02:48:08;;;;;;;;;0.00;0.00;;;;;14.21;75.36;98180.78;5086358;27;45583;-86
2023/10/21 02:50:33;;;;;;;;;0.00;0.00;;;;;14.08;75.26;98160.75;5097705;27;61491;-87
2023/10/21 02:52:58;;;;;;;;;0.00;0.00;;;;;14.24;75.29;98194.66;5097494;27;45506;-84
2023/10/21 02:55:27;;;;;;;;;0.00;0.00;;;;;14.24;74.70;98180.44;5097069;27;45309;-83
2023/10/21 02:57:53;;;;;;;;;1.00;0.00;;;;;13.82;74.24;98130.69;5095983;27;45658;-83
2023/10/21 03:00:21;;;;;;;;;0.00;0.00;;;;;14.24;74.12;98188.47;5099295;27;45582;-85
2023/10/21 03:02:48;;;;;;;;;1.00;0.00;;;;;14.30;73.24;98203.81;5096743;27;45349;-84
2023/10/21 03:05:16;;;;;;;;;0.00;0.00;;;;;14.15;73.68;98192.97;5093155;27;45274;-82
2023/10/21 03:07:42;;;;;;;;;2.33;0.67;;;;;14.11;73.96;98178.28;5076775;27;45464;-83
2023/10/21 03:10:08;;;;;;;;;1.00;0.00;;;;;14.13;73.93;98194.97;5080979;27;45500;-84
2023/10/21 03:12:33;;;;;;;;;0.33;0.00;;;;;14.18;73.69;98222.88;5096503;27;45376;-83
2023/10/21 03:15:00;;;;;;;;;3.00;0.00;;;;;14.18;74.02;98217.53;5095481;27;45390;-83
2023/10/21 03:17:26;;;;;;;;;0.00;0.00;;;;;14.03;73.78;98192.47;5096844;27;45567;-83
2023/10/21 03:19:51;;;;;;;;;1.00;0.00;;;;;14.19;73.74;98218.34;5096323;27;46610;-82
2023/10/21 03:22:16;;;;;;;;;0.00;0.00;;;;;14.16;74.01;98232.91;5096577;27;45501;-82
2023/10/21 03:24:42;;;;;;;;;0.00;0.00;;;;;14.06;73.61;98210.84;5096686;27;45517;-83
2023/10/21 03:27:08;;;;;;;;;1.00;0.00;;;;;14.18;74.07;98243.41;5095202;27;52696;-82
2023/10/21 03:29:33;;;;;;;;;0.00;0.00;;;;;14.08;73.84;98232.91;5096516;27;46531;-82
2023/10/21 03:31:58;;;;;;;;;0.00;0.00;;;;;13.97;73.77;98214.50;5096434;27;45387;-83
2023/10/21 03:34:23;;;;;;;;;0.00;0.00;;;;;14.05;73.34;98243.06;5096264;27;45323;-83
2023/10/21 03:36:49;;;;;;;;;0.00;0.00;;;;;13.96;74.09;98242.25;5095667;27;54981;-83
2023/10/21 03:39:15;;;;;;;;;0.00;0.00;;;;;13.76;74.00;98222.16;5096350;27;45415;-84
2023/10/21 03:41:40;;;;;;;;;1.00;0.00;;;;;13.74;74.29;98227.66;5093490;27;45349;-83
2023/10/21 03:44:06;;;;;;;;;0.00;0.00;;;;;13.71;74.65;98240.50;5078876;27;45305;-83
2023/10/21 03:46:31;;;;;;;;;3.00;0.00;;;;;13.64;74.31;98234.97;5079400;28;45528;-84
2023/10/21 03:48:57;;;;;;;;;0.00;0.00;;;;;13.53;74.83;98224.59;5079079;28;45313;-82
2023/10/21 03:51:22;;;;;;;;;0.00;0.00;;;;;13.86;74.71;98270.94;5079239;27;45330;-83
2023/10/21 03:53:48;;;;;;;;;1.00;1.00;;;;;13.91;74.46;98279.28;5077706;28;45359;-82
2023/10/21 03:56:14;;;;;;;;;0.00;0.00;;;;;13.91;74.60;98278.44;5079634;27;45243;-82
2023/10/21 03:58:40;;;;;;;;;1.00;1.00;;;;;13.92;74.52;98278.28;5079313;27;45657;-82
2023/10/21 04:01:06;;;;;;;;;0.00;0.00;;;;;13.85;74.58;98282.63;5079636;27;45427;-83
2023/10/21 04:03:31;;;;;;;;;0.00;0.00;;;;;13.90;74.47;98292.81;5078965;27;45263;-84
2023/10/21 04:05:57;;;;;;;;;0.00;0.00;;;;;13.75;74.22;98271.22;5082616;27;45444;-83
2023/10/21 04:08:23;;;;;;;;;0.00;0.00;;;;;13.87;74.37;98310.00;5080872;27;45731;-83
2023/10/21 04:10:49;;;;;;;;;0.00;0.00;;;;;13.78;74.43;98297.63;5078941;27;45329;-84
2023/10/21 04:13:15;;;;;;;;;4.67;0.00;;;;;13.78;74.68;98305.63;5079429;28;45292;-82
2023/10/21 04:15:41;;;;;;;;;0.00;0.00;;;;;13.64;73.39;98291.06;5082475;27;45621;-82
2023/10/21 04:18:06;;;;;;;;;0.00;0.00;;;;;13.42;73.77;98276.47;5087077;27;45659;-81
2023/10/21 04:20:31;;;;;;;;;1.00;0.00;;;;;13.43;73.83;98280.81;5090827;28;45345;-82
2023/10/21 04:22:57;;;;;;;;;0.00;0.00;;;;;13.67;73.87;98322.81;5089764;27;45242;-83
2023/10/21 04:25:23;;;;;;;;;0.00;0.00;;;;;13.70;73.75;98319.81;5090013;27;45205;-82
2023/10/21 04:27:49;;;;;;;;;1.00;0.00;;;;;13.71;73.88;98326.81;5089414;27;45226;-83
2023/10/21 04:30:14;;;;;;;;;1.33;0.33;;;;;13.47;73.88;98298.19;5086720;28;45201;-83
2023/10/21 04:32:40;;;;;;;;;2.00;0.00;;;;;13.62;73.42;98310.91;5079766;27;45306;-83
2023/10/21 04:35:06;;;;;;;;;0.00;0.00;;;;;13.77;73.21;98336.84;5079263;27;45682;-84
2023/10/21 04:37:31;;;;;;;;;2.00;0.00;;;;;13.77;73.26;98341.34;5078445;27;45291;-84
2023/10/21 04:39:57;;;;;;;;;0.00;0.00;;;;;13.66;72.99;98330.97;5078708;28;45244;-82
2023/10/21 04:42:26;;;;;;;;;0.67;0.00;;;;;13.48;73.54;98297.19;5087292;27;45471;-84
2023/10/21 04:44:52;;;;;;;;;0.00;0.00;;;;;13.53;73.27;98308.19;5099635;27;45329;-84
2023/10/21 04:47:17;;;;;;;;;0.00;0.00;;;;;13.69;73.24;98352.03;5099079;27;46245;-83
2023/10/21 04:49:45;;;;;;;;;1.33;0.00;;;;;13.63;73.12;98333.97;5097832;27;45302;-84
2023/10/21 04:52:11;;;;;;;;;3.00;0.00;;;;;13.65;73.58;98347.97;5084133;27;45331;-86
2023/10/21 04:54:37;;;;;;;;;0.00;0.00;;;;;13.66;73.48;98357.66;5087624;27;45809;-86
2023/10/21 04:57:02;;;;;;;;;0.33;0.00;;;;;13.65;73.72;98358.66;5093974;27;45512;-84
2023/10/21 04:59:28;;;;;;;;;0.67;0.33;;;;;13.52;73.75;98343.09;5098899;27;45327;-84
2023/10/21 05:01:53;;;;;;;;;0.00;0.00;;;;;13.43;73.81;98334.22;5081913;27;45756;-84
2023/10/21 05:04:18;;;;;;;;;2.00;0.00;;;;;13.47;73.86;98348.06;5083921;27;45380;-84
2023/10/21 05:06:44;;;;;;;;;0.00;0.00;;;;;13.56;73.99;98374.66;5098688;27;45933;-84
2023/10/21 05:09:12;;;;;;;;;0.00;0.00;;;;;13.55;74.60;98385.50;5094793;27;45400;-83
2023/10/21 05:11:37;;;;;;;;;0.00;0.00;;;;;13.51;74.42;98384.97;5098609;27;45359;-83
2023/10/21 05:14:03;;;;;;;;;0.00;0.00;;;;;13.28;74.71;98336.63;5098571;27;45241;-85
2023/10/21 05:16:28;;;;;;;;;0.00;0.00;;;;;13.57;74.79;98378.19;5098551;27;45870;-86
2023/10/21 05:18:53;;;;;;;;;0.00;0.00;;;;;13.61;74.18;98378.69;5098293;27;57696;-85
2023/10/21 05:21:19;;;;;;;;;0.00;0.00;;;;;13.62;73.96;98380.34;5090399;27;59673;-85
2023/10/21 05:23:44;;;;;;;;;0.33;0.33;;;;;13.61;74.22;98387.53;5094875;27;45310;-87
2023/10/21 05:26:09;;;;;;;;;1.00;0.00;;;;;13.44;74.06;98354.56;5080629;27;46457;-83
2023/10/21 05:28:35;;;;;;;;;3.33;0.67;;;;;13.61;74.94;98395.53;5081399;27;45227;-85
2023/10/21 05:31:03;;;;;;;;;0.00;0.00;;;;;13.58;75.11;98398.53;5083437;28;45183;-85
2023/10/21 05:33:29;;;;;;;;;1.00;0.00;;;;;13.55;75.07;98398.88;5081548;28;45558;-84
2023/10/21 05:35:59;;;;;;;;;0.00;0.00;;;;;13.36;75.56;98375.88;5078021;27;45519;-83
2023/10/21 05:38:24;;;;;;;;;1.33;0.00;;;;;13.38;75.56;98391.72;5078621;27;45406;-83
2023/10/21 05:40:50;;;;;;;;;0.00;0.00;;;;;13.39;75.21;98402.25;5078191;27;45311;-84
2023/10/21 05:43:15;;;;;;;;;1.00;0.00;;;;;13.35;75.36;98400.91;5078355;27;45324;-83
2023/10/21 05:45:40;;;;;;;;;3.00;0.00;;;;;13.31;75.61;98401.38;5077756;27;45431;-84
2023/10/21 05:48:06;;;;;;;;;3.67;2.00;;;;;13.15;75.73;98381.56;5079659;28;45198;-81
2023/10/21 05:50:32;;;;;;;;;1.00;1.00;;;;;13.13;76.27;98380.84;5077955;27;45443;-83
2023/10/21 05:52:57;;;;;;;;;2.00;0.00;;;;;13.16;76.01;98401.06;5078057;27;45459;-84
2023/10/21 05:55:22;;;;;;;;;1.00;1.00;;;;;13.20;76.43;98407.81;5081226;28;45457;-83
2023/10/21 05:57:48;;;;;;;;;1.00;0.67;;;;;13.17;76.17;98414.25;5087239;27;45381;-84
2023/10/21 06:00:14;;;;;;;;;1.00;1.00;;;;;13.19;75.61;98416.81;5093097;27;45254;-82
2023/10/21 06:02:39;;;;;;;;;0.33;0.33;;;;;12.91;75.71;98363.53;5093269;27;45330;-84
2023/10/21 06:05:05;;;;;;;;;3.67;0.33;;;;;13.12;76.21;98405.03;5076827;27;45282;-84
2023/10/21 06:07:31;;;;;;;;;2.00;0.00;;;;;13.09;76.28;98406.19;5076780;28;45422;-84
2023/10/21 06:09:56;;;;;;;;;2.00;0.67;;;;;12.52;76.34;98314.22;5077363;27;45393;-83
2023/10/21 06:12:21;;;;;;;;;3.33;1.33;;;;;13.01;76.21;98387.44;5076899;28;53776;-83
2023/10/21 06:14:47;;;;;;;;;0.67;0.67;;;;;13.13;76.36;98418.22;5077448;28;46293;-84
2023/10/21 06:17:13;;;;;;;;;4.67;1.00;;;;;13.19;76.44;98424.81;5082973;27;45206;-85
2023/10/21 06:19:38;;;;;;;;;0.67;0.00;;;;;13.00;76.02;98391.94;5080997;27;45231;-85
2023/10/21 06:22:03;;;;;;;;;0.00;0.00;;;;;13.27;76.41;98430.19;5097653;27;45318;-85
2023/10/21 06:24:30;;;;;;;;;3.00;0.00;;;;;13.20;75.90;98407.81;5100992;27;47168;-84
2023/10/21 06:26:58;;;;;;;;;1.00;1.00;;;;;13.18;76.31;98410.63;5081751;27;45433;-88
2023/10/21 06:29:24;;;;;;;;;2.33;1.00;;;;;12.83;75.78;98349.28;5094378;27;45434;-86
2023/10/21 06:31:50;;;;;;;;;2.00;1.00;;;;;12.80;75.36;98362.94;5103453;27;45564;-87
2023/10/21 06:34:15;;;;;;;;;1.67;1.00;;;;;13.13;75.84;98398.69;5097499;27;45471;-85
2023/10/21 06:36:42;;;;;;;;;7.33;2.00;;;;;13.31;75.81;98444.09;5092268;27;45320;-84
2023/10/21 06:39:07;;;;;;;;;3.00;1.00;;;;;12.92;75.33;98373.22;5081527;27;45528;-84
2023/10/21 06:41:33;;;;;;;;;2.33;1.00;;;;;13.33;74.84;98450.09;5091718;27;45615;-82
2023/10/21 06:43:59;;;;;;;;;0.00;0.00;;;;;13.40;74.77;98454.66;5082112;27;45808;-83
2023/10/21 06:46:25;;;;;;;;;3.00;0.00;;;;;13.36;74.45;98444.44;5081799;27;45348;-84
2023/10/21 06:48:50;;;;;;;;;3.00;1.00;;;;;13.50;73.43;98474.09;5084446;27;45457;-86
2023/10/21 06:51:17;;;;;;;;;4.00;2.33;;;;;13.53;73.87;98479.09;5097333;27;45305;-85
2023/10/21 06:53:42;;;;;;;;;2.67;1.00;;;;;13.51;73.63;98464.25;5095590;27;45768;-87
2023/10/21 06:56:12;;;;;;;;;3.33;1.00;;;;;13.61;73.58;98477.50;5082689;27;45401;-83
2023/10/21 06:58:40;;;;;;;;;1.00;1.00;;;;;13.54;73.03;98462.13;5101220;27;45251;-85
2023/10/21 07:01:07;;;;;;;;;0.67;0.67;;;;;13.58;73.19;98486.69;5079036;27;45268;-84
2023/10/21 07:03:33;;;;;;;;;2.00;0.00;;;;;13.56;72.69;98469.97;5077607;27;45394;-83
2023/10/21 07:05:58;;;;;;;;;2.00;1.00;;;;;13.28;72.33;98450.56;5084636;27;44870;-84
2023/10/21 07:08:23;;;;;;;;;2.33;0.00;;;;;13.57;72.57;98499.19;5099043;27;46114;-85
2023/10/21 07:10:52;;;;;;;;;2.33;1.00;;;;;13.53;73.00;98497.81;5088416;27;45583;-84
2023/10/21 07:13:18;;;;;;;;;2.67;1.00;;;;;13.52;72.54;98501.47;5110634;27;46068;-83
2023/10/21 07:15:44;;;;;;;;;1.00;1.00;;;;;13.43;72.65;98489.06;5092414;27;45322;-84
2023/10/21 07:18:09;;;;;;;;;3.00;1.00;;;;;13.41;72.70;98501.75;5105822;27;44685;-84
2023/10/21 07:20:36;;;;;;;;;1.33;1.33;;;;;13.56;72.84;98521.56;5098998;27;45314;-82
2023/10/21 07:23:02;;;;;;;;;5.00;1.33;;;;;13.51;72.11;98497.13;5101558;27;45325;-84
2023/10/21 07:25:28;;;;;;;;;4.00;0.00;;;;;13.57;72.37;98509.88;5105425;27;45533;-84
2023/10/21 07:27:53;;;;;;;;;3.67;1.00;;;;;13.69;71.74;98520.31;5096546;27;45582;-85
2023/10/21 07:30:19;;;;;;;;;2.00;2.00;;;;;13.71;71.61;98529.00;5104530;27;44942;-85
2023/10/21 07:32:44;;;;;;;;;2.33;0.67;;;;;13.74;71.17;98529.53;5086773;27;47854;-86
2023/10/21 07:35:14;;;;;;;;;1.00;1.00;;;;;13.82;71.28;98526.06;5089279;27;45330;-81
2023/10/21 07:37:39;;;;;;;;;2.00;0.00;;;;;13.83;70.83;98527.75;5095789;27;45390;-83
2023/10/21 07:40:06;;;;;;;;;1.00;1.00;;;;;13.83;70.89;98519.75;5098630;27;45820;-81
2023/10/21 07:42:32;;;;;;;;;0.67;0.00;;;;;13.78;70.61;98522.84;5089219;27;46410;-88
2023/10/21 07:44:58;;;;;;;;;6.33;1.00;;;;;13.82;70.38;98510.06;5085276;27;45472;-85
2023/10/21 07:47:25;;;;;;;;;2.33;0.33;;;;;13.63;70.55;98491.53;5098816;27;45487;-87
2023/10/21 07:49:51;;;;;;;;;2.00;0.33;;;;;13.61;70.55;98504.22;5095065;27;45566;-83
2023/10/21 07:52:16;;;;;;;;;0.00;0.00;;;;;13.52;70.67;98493.47;5084016;27;45535;-85
2023/10/21 07:54:42;;;;;;;;;3.33;1.00;;;;;13.77;70.26;98517.69;5097616;27;45854;-81
2023/10/21 07:57:08;;;;;;;;;0.67;0.67;;;;;13.89;70.33;98543.16;5083749;27;45393;-81
2023/10/21 07:59:34;;;;;;;;;8.00;2.33;;;;;13.93;70.46;98541.00;5084960;27;45670;-82
2023/10/21 08:02:00;;;;;;;;;3.00;1.67;;;;;13.95;69.74;98531.84;5083481;27;46627;-85
2023/10/21 08:04:25;;;;;;;;;0.00;0.00;;;;;13.94;69.71;98514.13;5088212;27;45367;-86
2023/10/21 08:06:51;;;;;;;;;1.67;0.00;;;;;13.82;69.52;98488.69;5084072;27;45330;-84
2023/10/21 08:09:17;;;;;;;;;4.00;1.00;;;;;13.93;69.38;98512.44;5086969;27;45573;-88
2023/10/21 08:11:43;;;;;;;;;2.33;1.00;;;;;14.05;69.31;98532.56;5081300;27;46389;-83
2023/10/21 08:14:12;;;;;;;;;1.33;1.00;;;;;14.04;68.94;98522.84;5095581;27;45572;-83
2023/10/21 08:16:37;;;;;;;;;5.33;0.67;;;;;13.73;68.52;98479.75;5087284;27;45433;-85
2023/10/21 08:19:06;;;;;;;;;2.00;0.67;;;;;14.25;68.65;98551.06;5080010;27;45891;-80
2023/10/21 08:21:34;;;;;;;;;3.00;2.00;;;;;14.27;67.95;98557.06;5082005;27;45449;-82
2023/10/21 08:24:02;;;;;;;;;3.00;1.33;;;;;13.94;68.16;98486.56;5099889;27;45357;-81
2023/10/21 08:26:28;;;;;;;;;3.67;1.00;;;;;14.34;68.38;98556.28;5094238;27;45347;-80
2023/10/21 08:28:54;;;;;;;;;2.00;2.00;;;;;14.45;68.17;98552.50;5081597;27;45394;-83
2023/10/21 08:31:20;;;;;;;;;0.00;0.00;;;;;14.56;67.76;98556.75;5081209;27;45376;-82
2023/10/21 08:33:48;;;;;;;;;2.33;2.00;;;;;14.58;67.31;98571.63;5107996;27;44686;-82
2023/10/21 08:36:19;;;;;;;;;4.00;1.00;;;;;14.44;67.56;98550.84;5088470;27;45567;-82
2023/10/21 08:38:48;;;;;;;;;5.00;2.00;;;;;14.40;68.00;98555.63;5086330;27;45418;-85
2023/10/21 08:41:17;;;;;;;;;4.00;1.67;;;;;14.42;67.63;98576.88;5092023;27;47987;-80
2023/10/21 08:43:48;;;;;;;;;2.00;1.00;;;;;14.43;67.46;98591.91;5080583;27;45386;-84
2023/10/21 08:46:15;;;;;;;;;1.00;1.00;;;;;14.27;67.92;98554.41;5082383;27;45420;-85
2023/10/21 08:48:43;;;;;;;;;0.67;0.67;;;;;14.46;67.31;98586.31;5093944;27;45417;-83
2023/10/21 08:51:13;;;;;;;;;3.00;1.00;;;;;14.61;67.45;98565.97;5113936;27;45220;-91
2023/10/21 08:53:41;;;;;;;;;1.33;1.00;;;;;14.40;66.95;98509.34;5119101;27;45341;-92
2023/10/21 08:56:18;;;;;;;;;2.33;1.00;;;;;14.71;65.94;98550.66;5092820;27;45573;-91
2023/10/21 08:58:44;;;;;;;;;1.00;1.00;;;;;14.95;65.50;98573.09;5091591;27;45284;-88
2023/10/21 09:01:14;;;;;;;;;3.00;1.00;;;;;14.97;65.62;98571.09;5098506;27;45651;-85
2023/10/21 09:03:45;;;;;;;;;4.00;1.00;;;;;14.93;66.30;98583.13;5097806;27;45751;-85
2023/10/21 09:06:11;;;;;;;;;1.00;1.00;;;;;14.88;65.59;98588.16;5123256;27;45362;-84
2023/10/21 09:08:38;;;;;;;;;6.33;1.67;;;;;14.68;65.74;98553.63;5100825;27;45635;-88
2023/10/21 09:11:07;;;;;;;;;2.00;0.33;;;;;14.85;66.07;98561.72;5104848;27;46311;-87
2023/10/21 09:13:41;;;;;;;;;2.00;0.00;;;;;14.71;65.95;98566.69;5093015;27;45362;-86
2023/10/21 09:16:24;;;;;;;;;1.33;0.00;;;;;14.79;66.19;98589.94;5083469;27;45481;-86
2023/10/21 09:19:00;;;;;;;;;3.00;3.00;;;;;14.63;65.50;98569.31;5085566;27;45314;-86
2023/10/21 09:21:39;;;;;;;;;0.00;0.00;;;;;14.80;66.18;98577.41;5081881;27;45427;-83
2023/10/21 09:24:10;;;;;;;;;6.00;1.00;;;;;14.67;65.63;98570.66;5082104;27;45266;-85
2023/10/21 09:26:40;;;;;;;;;1.00;0.33;;;;;14.81;65.63;98579.09;5081510;27;46125;-86
2023/10/21 09:29:08;;;;;;;;;1.33;1.00;;;;;14.82;65.69;98570.88;5078509;27;45480;-85
2023/10/21 09:31:51;;;;;;;;;0.67;0.67;;;;;14.94;66.05;98576.78;5076601;27;46178;-83
2023/10/21 09:34:31;;;;;;;;;1.67;1.00;;;;;15.16;65.31;98600.28;5103308;27;45425;-82
2023/10/21 09:37:04;;;;;;;;;3.00;1.67;;;;;15.12;64.58;98604.28;5085317;27;45472;-84
2023/10/21 09:39:36;;;;;;;;;2.00;1.00;;;;;15.06;65.27;98607.59;5088655;27;45534;-81
2023/10/21 09:42:03;;;;;;;;;2.67;1.00;;;;;15.05;65.04;98605.94;5086157;27;46106;-81
2023/10/21 09:44:30;;;;;;;;;3.00;2.00;;;;;15.05;65.86;98600.56;5085130;27;46153;-83
2023/10/21 09:46:59;;;;;;;;;0.00;0.00;;;;;15.07;64.83;98593.22;5083642;27;45370;-84
2023/10/21 09:49:27;;;;;;;;;1.00;0.00;;;;;15.20;64.62;98604.31;5080740;27;45461;-82
2023/10/21 09:52:06;;;;;;;;;2.00;1.00;;;;;15.26;64.00;98603.66;5091493;27;46346;-83
2023/10/21 09:54:45;;;;;;;;;1.00;1.00;;;;;15.27;64.36;98591.09;5083703;27;45578;-81
2023/10/21 09:57:12;;;;;;;;;0.67;0.67;;;;;15.28;63.92;98592.78;5083606;27;45354;-83
2023/10/21 09:59:39;;;;;;;;;1.00;1.00;;;;;15.41;63.97;98605.69;5086885;27;45457;-84
2023/10/21 10:02:06;;;;;;;;;2.67;1.00;;;;;15.44;63.89;98602.69;5085618;27;47207;-84
2023/10/21 10:04:34;;;;;;;;;4.00;1.00;;;;;15.25;63.77;98577.88;5081508;27;45352;-83
2023/10/21 10:07:05;;;;;;;;;2.00;2.00;;;;;15.38;64.26;98611.38;5077149;27;45384;-84
2023/10/21 10:09:30;;;;;;;;;0.00;0.00;;;;;15.26;64.46;98603.66;5089638;27;45457;-85
2023/10/21 10:11:59;;;;;;;;;2.00;1.00;;;;;15.20;64.71;98608.81;5079164;28;46392;-85
2023/10/21 10:14:28;;;;;;;;;1.33;1.00;;;;;15.20;64.98;98604.31;5077456;27;45374;-82
2023/10/21 10:16:55;;;;;;;;;0.00;0.00;;;;;15.21;65.66;98616.69;5090828;27;45461;-84
2023/10/21 10:19:40;;;;;;;;;3.00;2.00;;;;;15.14;65.47;98610.31;5082858;27;45478;-86
2023/10/21 10:22:29;;;;;;;;;3.00;1.00;;;;;15.16;65.82;98618.19;5078348;27;47528;-87
2023/10/21 10:24:56;;;;;;;;;0.00;0.00;;;;;14.92;65.64;98552.03;5072177;27;45330;-83
2023/10/21 10:27:35;;;;;;;;;3.67;1.33;;;;;15.45;64.84;98612.38;5075258;27;45279;-86
2023/10/21 10:30:00;;;;;;;;;1.00;1.00;;;;;15.62;64.22;98608.75;5081724;27;45537;-85
2023/10/21 10:32:29;;;;;;;;;3.00;2.00;;;;;15.69;63.56;98616.97;5077467;27;46000;-82
2023/10/21 10:34:57;;;;;;;;;2.00;0.67;;;;;15.75;62.99;98608.25;5087908;27;45429;-84
2023/10/21 10:37:32;;;;;;;;;0.67;0.67;;;;;15.73;62.61;98599.53;5091712;27;45711;-82
2023/10/21 10:39:58;;;;;;;;;2.00;2.00;;;;;15.74;62.54;98604.72;5083387;27;45397;-84
2023/10/21 10:42:31;;;;;;;;;2.33;1.00;;;;;15.72;62.89;98601.38;5079210;27;46519;-83
2023/10/21 10:44:56;;;;;;;;;3.00;2.00;;;;;15.59;62.54;98603.69;5099031;27;45417;-84
2023/10/21 10:47:26;;;;;;;;;3.67;2.33;;;;;15.52;62.98;98619.63;5090718;27;45334;-83
2023/10/21 10:50:00;;;;;;;;;2.33;1.00;;;;;15.45;63.20;98623.09;5084367;27;45398;-84
2023/10/21 10:52:27;;;;;;;;;5.00;2.67;;;;;15.41;63.58;98632.47;5074928;27;45806;-85
2023/10/21 10:54:53;;;;;;;;;3.00;1.67;;;;;15.35;63.57;98628.59;5080883;27;46098;-83
2023/10/21 10:57:20;;;;;;;;;1.00;1.00;;;;;14.90;63.89;98559.38;5083445;27;45567;-84
2023/10/21 10:59:46;;;;;;;;;2.00;0.67;;;;;15.27;63.74;98634.78;5082211;27;45344;-83
2023/10/21 11:02:14;;;;;;;;;1.33;1.33;;;;;15.26;63.39;98614.38;5084585;27;47431;-82
2023/10/21 11:04:40;;;;;;;;;1.67;1.00;;;;;15.21;63.37;98600.63;5078930;27;45577;-83
2023/10/21 11:07:09;;;;;;;;;4.00;1.00;;;;;15.28;63.85;98625.75;5084485;27;45402;-83
2023/10/21 11:09:34;;;;;;;;;1.00;1.00;;;;;15.29;63.87;98616.72;5081334;27;45455;-82
2023/10/21 11:12:00;;;;;;;;;1.33;1.00;;;;;15.31;63.28;98617.38;5097459;27;45492;-82
2023/10/21 11:14:27;;;;;;;;;0.33;0.33;;;;;15.34;63.31;98617.03;5090425;27;45463;-82
2023/10/21 11:16:52;;;;;;;;;1.00;1.00;;;;;15.15;63.39;98587.91;5100911;27;45688;-82
2023/10/21 11:19:18;;;;;;;;;1.00;1.00;;;;;15.22;64.18;98602.28;5093738;27;45883;-83
2023/10/21 11:21:48;;;;;;;;;1.00;1.00;;;;;15.27;65.45;98618.72;5092985;27;46037;-81
2023/10/21 11:24:14;;;;;;;;;6.00;4.67;;;;;15.09;65.12;98591.22;5078286;27;45365;-82
2023/10/21 11:26:40;;;;;;;;;1.67;1.00;;;;;15.35;65.49;98621.41;5079417;27;45378;-83
2023/10/21 11:29:06;;;;;;;;;2.00;0.00;;;;;15.04;65.64;98586.34;5080570;27;45393;-81
2023/10/21 11:31:33;;;;;;;;;1.67;1.00;;;;;15.26;65.64;98630.44;5082279;27;46201;-82
2023/10/21 11:34:11;;;;;;;;;0.33;0.33;;;;;15.24;66.16;98642.31;5080679;27;45679;-80